Time,TemperatureF,DewpointF,PressureIn,WindDirection,WindDirectionDegrees,WindSpeedMPH,WindSpeedGustMPH,Humidity,HourlyPrecipIn,Conditions,Clouds,dailyrainin,SolarRadiationWatts/m^2,SoftwareType,DateUTC
2013-02-18 00:01:00,29.0,14.0,-100.00,NW,309,5.0,16.0,53,0.00,,,0.00,0.000000,,2013-02-18 07:01:00,
2013-02-18 00:11:00,29.0,14.0,-100.00,NW,309,5.0,16.0,53,0.00,,,0.00,0.000000,,2013-02-18 07:11:00,
2013-02-18 00:21:00,29.0,14.0,-100.00,NW,309,5.0,16.0,53,0.00,,,0.00,0.000000,,2013-02-18 07:21:00,
2013-02-18 00:31:00,29.0,14.0,-100.00,NW,309,5.0,16.0,53,0.00,,,0.00,0.000000,,2013-02-18 07:31:00,
2013-02-18 00:40:00,27.0,14.0,-100.00,WNW,297,8.0,14.0,58,0.00,,,0.00,0.000000,,2013-02-18 07:40:00,
2013-02-18 01:01:00,27.0,14.0,-100.00,WNW,297,8.0,14.0,58,0.00,,,0.00,0.000000,,2013-02-18 08:01:00,
2013-02-18 01:11:00,27.0,14.0,-100.00,WNW,297,8.0,14.0,58,0.00,,,0.00,0.000000,,2013-02-18 08:11:00,
2013-02-18 01:21:00,27.0,14.0,-100.00,WNW,297,8.0,14.0,58,0.00,,,0.00,0.000000,,2013-02-18 08:21:00,
2013-02-18 01:32:00,27.0,14.0,-100.00,WNW,297,8.0,14.0,58,0.00,,,0.00,0.000000,,2013-02-18 08:32:00,
2013-02-18 01:40:00,24.0,10.0,-100.00,NW,321,10.0,22.0,54,0.00,,,-99.99,0.000000,,2013-02-18 08:40:00,
2013-02-18 02:02:00,24.0,10.0,-100.00,NW,321,10.0,22.0,54,0.00,,,-99.99,0.000000,,2013-02-18 09:02:00,
2013-02-18 02:11:00,24.0,10.0,-100.00,NW,321,10.0,22.0,54,0.00,,,-99.99,0.000000,,2013-02-18 09:11:00,
2013-02-18 02:22:00,24.0,10.0,-100.00,NW,321,10.0,22.0,54,0.00,,,-99.99,0.000000,,2013-02-18 09:22:00,
2013-02-18 02:31:00,24.0,10.0,-100.00,NW,321,10.0,22.0,54,0.00,,,-99.99,0.000000,,2013-02-18 09:31:00,
2013-02-18 02:40:00,21.0,5.0,-100.00,NW,322,5.0,19.0,49,0.00,,,0.00,0.000000,,2013-02-18 09:40:00,
2013-02-18 03:01:00,21.0,5.0,-100.00,NW,322,5.0,19.0,49,0.00,,,0.00,0.000000,,2013-02-18 10:01:00,
2013-02-18 03:11:00,21.0,5.0,-100.00,NW,322,5.0,19.0,49,0.00,,,0.00,0.000000,,2013-02-18 10:11:00,
2013-02-18 03:21:00,21.0,5.0,-100.00,NW,322,5.0,19.0,49,0.00,,,0.00,0.000000,,2013-02-18 10:21:00,
2013-02-18 03:31:00,21.0,5.0,-100.00,NW,322,5.0,19.0,49,0.00,,,0.00,0.000000,,2013-02-18 10:31:00,
2013-02-18 03:40:00,18.0,2.0,-100.00,WNW,282,8.0,15.0,48,0.00,,,0.00,0.000000,,2013-02-18 10:40:00,
2013-02-18 04:01:00,18.0,2.0,-100.00,WNW,282,8.0,15.0,48,0.00,,,0.00,0.000000,,2013-02-18 11:01:00,
2013-02-18 04:11:00,18.0,2.0,-100.00,WNW,282,8.0,15.0,48,0.00,,,0.00,0.000000,,2013-02-18 11:11:00,
2013-02-18 04:21:00,18.0,2.0,-100.00,WNW,282,8.0,15.0,48,0.00,,,0.00,0.000000,,2013-02-18 11:21:00,
2013-02-18 04:32:00,18.0,2.0,-100.00,WNW,282,8.0,15.0,48,0.00,,,0.00,0.000000,,2013-02-18 11:32:00,
2013-02-18 04:40:00,16.0,0.0,-100.00,North,352,5.0,18.0,49,0.00,,,0.00,0.000000,,2013-02-18 11:40:00,
2013-02-18 05:02:00,16.0,0.0,-100.00,North,352,5.0,18.0,49,0.00,,,0.00,0.000000,,2013-02-18 12:02:00,
2013-02-18 05:11:00,16.0,0.0,-100.00,North,352,5.0,18.0,49,0.00,,,0.00,0.000000,,2013-02-18 12:11:00,
2013-02-18 05:31:00,16.0,0.0,-100.00,North,352,5.0,18.0,49,0.00,,,0.00,0.000000,,2013-02-18 12:31:00,
2013-02-18 05:40:00,15.0,0.0,-100.00,NNW,346,6.0,13.0,50,0.00,,,0.00,0.000000,,2013-02-18 12:40:00,
2013-02-18 06:02:00,15.0,0.0,-100.00,NNW,346,6.0,13.0,50,0.00,,,0.00,0.000000,,2013-02-18 13:02:00,
2013-02-18 06:12:00,15.0,0.0,-100.00,NNW,346,6.0,13.0,50,0.00,,,0.00,0.000000,,2013-02-18 13:12:00,
2013-02-18 06:22:00,15.0,0.0,-100.00,NNW,346,6.0,13.0,50,0.00,,,0.00,0.000000,,2013-02-18 13:22:00,
2013-02-18 06:32:00,15.0,0.0,-100.00,NNW,346,6.0,13.0,50,0.00,,,0.00,0.000000,,2013-02-18 13:32:00,
2013-02-18 06:40:00,14.0,1.0,-100.00,NW,322,9.0,14.0,55,0.00,,,0.00,0.000000,,2013-02-18 13:40:00,
2013-02-18 07:02:00,14.0,1.0,-100.00,NW,322,9.0,14.0,55,0.00,,,0.00,0.000000,,2013-02-18 14:02:00,
2013-02-18 07:11:00,14.0,1.0,-100.00,NW,322,9.0,14.0,55,0.00,,,0.00,0.000000,,2013-02-18 14:11:00,
2013-02-18 07:22:00,14.0,1.0,-100.00,NW,322,9.0,14.0,55,0.00,,,0.00,0.000000,,2013-02-18 14:22:00,
2013-02-18 07:32:00,14.0,1.0,-100.00,NW,322,9.0,14.0,55,0.00,,,0.00,0.000000,,2013-02-18 14:32:00,
2013-02-18 07:40:00,15.0,3.0,-100.00,NW,318,13.0,18.0,57,0.00,,,0.00,11.000000,,2013-02-18 14:40:00,
2013-02-18 08:02:00,15.0,3.0,-100.00,NW,318,13.0,18.0,57,0.00,,,0.00,11.000000,,2013-02-18 15:02:00,
2013-02-18 08:11:00,15.0,3.0,-100.00,NW,318,13.0,18.0,57,0.00,,,0.00,11.000000,,2013-02-18 15:11:00,
2013-02-18 08:22:00,15.0,3.0,-100.00,NW,318,13.0,18.0,57,0.00,,,0.00,11.000000,,2013-02-18 15:22:00,
2013-02-18 08:31:00,15.0,3.0,-100.00,NW,318,13.0,18.0,57,0.00,,,0.00,11.000000,,2013-02-18 15:31:00,
2013-02-18 08:40:00,20.0,2.0,-100.00,NW,307,11.0,20.0,44,0.00,,,0.00,147.000000,,2013-02-18 15:40:00,
2013-02-18 09:02:00,20.0,2.0,-100.00,NW,307,11.0,20.0,44,0.00,,,0.00,147.000000,,2013-02-18 16:02:00,
2013-02-18 09:11:00,20.0,2.0,-100.00,NW,307,11.0,20.0,44,0.00,,,0.00,147.000000,,2013-02-18 16:11:00,
2013-02-18 09:22:00,20.0,2.0,-100.00,NW,307,11.0,20.0,44,0.00,,,0.00,147.000000,,2013-02-18 16:22:00,
2013-02-18 09:31:00,20.0,2.0,-100.00,NW,307,11.0,20.0,44,0.00,,,0.00,147.000000,,2013-02-18 16:31:00,
2013-02-18 09:40:00,23.0,1.0,-100.00,NW,309,11.0,21.0,37,0.00,,,0.00,435.000000,,2013-02-18 16:40:00,
2013-02-18 10:03:00,23.0,1.0,-100.00,NW,309,11.0,21.0,37,0.00,,,0.00,435.000000,,2013-02-18 17:03:00,
2013-02-18 10:12:00,23.0,1.0,-100.00,NW,309,11.0,21.0,37,0.00,,,0.00,435.000000,,2013-02-18 17:12:00,
2013-02-18 10:22:00,23.0,1.0,-100.00,NW,309,11.0,21.0,37,0.00,,,0.00,435.000000,,2013-02-18 17:22:00,
2013-02-18 10:32:00,23.0,1.0,-100.00,NW,309,11.0,21.0,37,0.00,,,0.00,435.000000,,2013-02-18 17:32:00,
2013-02-18 10:40:00,27.0,5.0,-100.00,WNW,303,7.0,22.0,38,0.00,,,0.00,648.000000,,2013-02-18 17:40:00,
2013-02-18 11:02:00,27.0,5.0,-100.00,WNW,303,7.0,22.0,38,0.00,,,0.00,648.000000,,2013-02-18 18:02:00,
2013-02-18 11:11:00,27.0,5.0,-100.00,WNW,303,7.0,22.0,38,0.00,,,0.00,648.000000,,2013-02-18 18:11:00,
2013-02-18 11:22:00,27.0,5.0,-100.00,WNW,303,7.0,22.0,38,0.00,,,0.00,648.000000,,2013-02-18 18:22:00,
2013-02-18 11:32:00,27.0,5.0,-100.00,WNW,303,7.0,22.0,38,0.00,,,0.00,648.000000,,2013-02-18 18:32:00,
2013-02-18 11:40:00,30.0,4.0,-100.00,WNW,286,7.0,14.0,33,0.00,,,0.00,806.000000,,2013-02-18 18:40:00,
2013-02-18 12:02:00,30.0,4.0,-100.00,WNW,286,7.0,14.0,33,0.00,,,0.00,806.000000,,2013-02-18 19:02:00,
2013-02-18 12:12:00,30.0,4.0,-100.00,WNW,286,7.0,14.0,33,0.00,,,0.00,806.000000,,2013-02-18 19:12:00,
2013-02-18 12:22:00,30.0,4.0,-100.00,WNW,286,7.0,14.0,33,0.00,,,0.00,806.000000,,2013-02-18 19:22:00,
2013-02-18 12:32:00,30.0,4.0,-100.00,WNW,286,7.0,14.0,33,0.00,,,0.00,806.000000,,2013-02-18 19:32:00,
2013-02-18 12:40:00,31.0,3.0,-100.00,WNW,286,10.0,19.0,29,0.00,,,0.00,896.000000,,2013-02-18 19:40:00,
2013-02-18 13:02:00,31.0,3.0,-100.00,WNW,286,10.0,19.0,29,0.00,,,0.00,896.000000,,2013-02-18 20:02:00,
2013-02-18 13:12:00,31.0,3.0,-100.00,WNW,286,10.0,19.0,29,0.00,,,0.00,896.000000,,2013-02-18 20:12:00,
2013-02-18 13:22:00,31.0,3.0,-100.00,WNW,286,10.0,19.0,29,0.00,,,0.00,896.000000,,2013-02-18 20:22:00,
2013-02-18 13:32:00,31.0,3.0,-100.00,WNW,286,10.0,19.0,29,0.00,,,0.00,896.000000,,2013-02-18 20:32:00,
2013-02-18 13:40:00,33.0,-2.0,-100.00,NW,310,8.0,19.0,22,0.00,,,0.00,861.000000,,2013-02-18 20:40:00,
2013-02-18 14:02:00,33.0,-2.0,-100.00,NW,310,8.0,19.0,22,0.00,,,0.00,861.000000,,2013-02-18 21:02:00,
2013-02-18 14:12:00,33.0,-2.0,-100.00,NW,310,8.0,19.0,22,0.00,,,0.00,861.000000,,2013-02-18 21:12:00,
2013-02-18 14:21:00,33.0,-2.0,-100.00,NW,310,8.0,19.0,22,0.00,,,0.00,861.000000,,2013-02-18 21:21:00,
2013-02-18 14:32:00,33.0,-2.0,-100.00,NW,310,8.0,19.0,22,0.00,,,0.00,861.000000,,2013-02-18 21:32:00,
2013-02-18 14:40:00,32.0,-2.0,-100.00,WNW,288,10.0,18.0,22,0.00,,,0.00,819.000000,,2013-02-18 21:40:00,
2013-02-18 15:02:00,32.0,-2.0,-100.00,WNW,288,10.0,18.0,22,0.00,,,0.00,819.000000,,2013-02-18 22:02:00,
2013-02-18 15:12:00,32.0,-2.0,-100.00,WNW,288,10.0,18.0,22,0.00,,,0.00,819.000000,,2013-02-18 22:12:00,
2013-02-18 15:22:00,32.0,-2.0,-100.00,WNW,288,10.0,18.0,22,0.00,,,0.00,819.000000,,2013-02-18 22:22:00,
2013-02-18 15:32:00,32.0,-2.0,-100.00,WNW,288,10.0,18.0,22,0.00,,,0.00,819.000000,,2013-02-18 22:32:00,
2013-02-18 15:40:00,32.0,-1.0,-100.00,WNW,289,11.0,19.0,24,0.00,,,0.00,729.000000,,2013-02-18 22:40:00,
2013-02-18 16:02:00,32.0,-1.0,-100.00,WNW,289,11.0,19.0,24,0.00,,,0.00,729.000000,,2013-02-18 23:02:00,
2013-02-18 16:12:00,32.0,-1.0,-100.00,WNW,289,11.0,19.0,24,0.00,,,0.00,729.000000,,2013-02-18 23:12:00,
2013-02-18 16:22:00,32.0,-1.0,-100.00,WNW,289,11.0,19.0,24,0.00,,,0.00,729.000000,,2013-02-18 23:22:00,
2013-02-18 16:32:00,32.0,-1.0,-100.00,WNW,289,11.0,19.0,24,0.00,,,0.00,729.000000,,2013-02-18 23:32:00,
2013-02-18 16:40:00,30.0,-1.0,-100.00,WNW,294,11.0,20.0,26,0.00,,,0.00,490.000000,,2013-02-18 23:40:00,
2013-02-18 17:02:00,30.0,-1.0,-100.00,WNW,294,11.0,20.0,26,0.00,,,0.00,490.000000,,2013-02-19 00:02:00,
2013-02-18 17:12:00,30.0,-1.0,-100.00,WNW,294,11.0,20.0,26,0.00,,,0.00,490.000000,,2013-02-19 00:12:00,
2013-02-18 17:22:00,30.0,-1.0,-100.00,WNW,294,11.0,20.0,26,0.00,,,0.00,490.000000,,2013-02-19 00:22:00,
2013-02-18 17:33:00,30.0,-1.0,-100.00,WNW,294,11.0,20.0,26,0.00,,,0.00,490.000000,,2013-02-19 00:33:00,
2013-02-18 17:40:00,26.0,4.0,-100.00,NW,309,9.0,16.0,38,0.00,,,0.00,159.000000,,2013-02-19 00:40:00,
2013-02-18 18:03:00,26.0,4.0,-100.00,NW,309,9.0,16.0,38,0.00,,,0.00,159.000000,,2013-02-19 01:03:00,
2013-02-18 18:13:00,26.0,4.0,-100.00,NW,309,9.0,16.0,38,0.00,,,0.00,159.000000,,2013-02-19 01:13:00,
2013-02-18 18:22:00,26.0,4.0,-100.00,NW,309,9.0,16.0,38,0.00,,,0.00,159.000000,,2013-02-19 01:22:00,
2013-02-18 18:33:00,26.0,4.0,-100.00,NW,309,9.0,16.0,38,0.00,,,0.00,159.000000,,2013-02-19 01:33:00,
2013-02-18 18:40:00,24.0,0.0,-100.00,NW,324,3.0,16.0,34,0.00,,,0.00,4.000000,,2013-02-19 01:40:00,
2013-02-18 19:02:00,24.0,0.0,-100.00,NW,324,3.0,16.0,34,0.00,,,0.00,4.000000,,2013-02-19 02:02:00,
2013-02-18 19:13:00,24.0,0.0,-100.00,NW,324,3.0,16.0,34,0.00,,,0.00,4.000000,,2013-02-19 02:13:00,
2013-02-18 19:22:00,24.0,0.0,-100.00,NW,324,3.0,16.0,34,0.00,,,0.00,4.000000,,2013-02-19 02:22:00,
2013-02-18 19:33:00,24.0,0.0,-100.00,NW,324,3.0,16.0,34,0.00,,,0.00,4.000000,,2013-02-19 02:33:00,
2013-02-18 19:40:00,21.0,-2.0,-100.00,NNW,327,1.0,8.0,35,0.00,,,0.00,0.000000,,2013-02-19 02:40:00,
2013-02-18 20:05:00,21.0,-2.0,-100.00,NNW,327,1.0,8.0,35,0.00,,,0.00,0.000000,,2013-02-19 03:05:00,
2013-02-18 20:22:00,21.0,-2.0,-100.00,NNW,327,1.0,8.0,35,0.00,,,0.00,0.000000,,2013-02-19 03:22:00,
2013-02-18 20:32:00,21.0,-2.0,-100.00,NNW,327,1.0,8.0,35,0.00,,,0.00,0.000000,,2013-02-19 03:32:00,
2013-02-18 20:40:00,23.0,-8.0,-100.00,NNE,31,3.0,5.0,25,0.00,,,0.00,0.000000,,2013-02-19 03:40:00,
2013-02-18 21:02:00,23.0,-8.0,-100.00,NNE,31,3.0,5.0,25,0.00,,,0.00,0.000000,,2013-02-19 04:02:00,
2013-02-18 21:13:00,23.0,-8.0,-100.00,NNE,31,3.0,5.0,25,0.00,,,0.00,0.000000,,2013-02-19 04:13:00,
2013-02-18 21:22:00,23.0,-8.0,-100.00,NNE,31,3.0,5.0,25,0.00,,,0.00,0.000000,,2013-02-19 04:22:00,
2013-02-18 21:32:00,23.0,-8.0,-100.00,NNE,31,3.0,5.0,25,0.00,,,0.00,0.000000,,2013-02-19 04:32:00,
2013-02-18 21:40:00,21.0,-6.0,-100.00,SSE,152,2.0,5.0,29,0.00,,,0.00,0.000000,,2013-02-19 04:40:00,
2013-02-18 22:02:00,21.0,-6.0,-100.00,SSE,152,2.0,5.0,29,0.00,,,0.00,0.000000,,2013-02-19 05:02:00,
2013-02-18 22:12:00,21.0,-6.0,-100.00,SSE,152,2.0,5.0,29,0.00,,,0.00,0.000000,,2013-02-19 05:12:00,
2013-02-18 22:22:00,21.0,-6.0,-100.00,SSE,152,2.0,5.0,29,0.00,,,0.00,0.000000,,2013-02-19 05:22:00,
2013-02-18 22:32:00,21.0,-6.0,-100.00,SSE,152,2.0,5.0,29,0.00,,,0.00,0.000000,,2013-02-19 05:32:00,
2013-02-18 22:40:00,25.0,-1.0,-100.00,SE,145,6.0,12.0,31,0.00,,,0.00,0.000000,,2013-02-19 05:40:00,
2013-02-18 23:02:00,25.0,-1.0,-100.00,SE,145,6.0,12.0,31,0.00,,,0.00,0.000000,,2013-02-19 06:02:00,
2013-02-18 23:11:00,25.0,-1.0,-100.00,SE,145,6.0,12.0,31,0.00,,,0.00,0.000000,,2013-02-19 06:11:00,
2013-02-18 23:21:00,25.0,-1.0,-100.00,SE,145,6.0,12.0,31,0.00,,,0.00,0.000000,,2013-02-19 06:21:00,
2013-02-18 23:32:00,25.0,-1.0,-100.00,SE,145,6.0,12.0,31,0.00,,,0.00,0.000000,,2013-02-19 06:32:00,
2013-02-18 23:40:00,22.0,-1.0,-100.00,SE,137,3.0,12.0,35,0.00,,,0.00,0.000000,,2013-02-19 06:40:00,